sensor_id;sensor_type;location;lat;lon;timestamp;pressure;altitude;pressure_sealevel;temperature;humidity
38880;BME280;25887;30.194;-97.880;2022-10-26T00:01:42;98447.63;;;23.86;29.84
38880;BME280;25887;30.194;-97.880;2022-10-26T00:04:08;98449.78;;;23.78;29.56
38880;BME280;25887;30.194;-97.880;2022-10-26T00:06:34;98447.56;;;23.71;29.91
38880;BME280;25887;30.194;-97.880;2022-10-26T00:09:00;98441.78;;;23.64;29.99
38880;BME280;25887;30.194;-97.880;2022-10-26T00:11:26;98441.22;;;23.57;30.01
38880;BME280;25887;30.194;-97.880;2022-10-26T00:13:51;98437.16;;;23.52;29.79
38880;BME280;25887;30.194;-97.880;2022-10-26T00:16:24;98444.41;;;23.47;30.07
38880;BME280;25887;30.194;-97.880;2022-10-26T00:18:51;98453.50;;;23.40;29.95
38880;BME280;25887;30.194;-97.880;2022-10-26T00:21:17;98451.28;;;23.32;30.15
38880;BME280;25887;30.194;-97.880;2022-10-26T00:23:43;98458.59;;;23.25;30.00
38880;BME280;25887;30.194;-97.880;2022-10-26T00:26:09;98461.56;;;23.19;30.03
38880;BME280;25887;30.194;-97.880;2022-10-26T00:28:35;98467.09;;;23.13;29.95
38880;BME280;25887;30.194;-97.880;2022-10-26T00:31:02;98472.63;;;23.07;30.08
38880;BME280;25887;30.194;-97.880;2022-10-26T00:33:28;98473.09;;;22.98;30.21
38880;BME280;25887;30.194;-97.880;2022-10-26T00:35:56;98478.53;;;22.93;30.45
38880;BME280;25887;30.194;-97.880;2022-10-26T00:38:22;98478.81;;;22.87;30.37
38880;BME280;25887;30.194;-97.880;2022-10-26T00:40:48;98478.19;;;22.82;30.51
38880;BME280;25887;30.194;-97.880;2022-10-26T00:43:15;98488.94;;;22.76;30.65
38880;BME280;25887;30.194;-97.880;2022-10-26T00:45:41;98485.78;;;22.69;30.31
38880;BME280;25887;30.194;-97.880;2022-10-26T00:48:21;98486.06;;;22.63;30.51
38880;BME280;25887;30.194;-97.880;2022-10-26T00:50:49;98483.75;;;22.57;30.62
38880;BME280;25887;30.194;-97.880;2022-10-26T00:53:17;98497.13;;;22.51;30.83
38880;BME280;25887;30.194;-97.880;2022-10-26T00:55:44;98505.25;;;22.45;30.77
38880;BME280;25887;30.194;-97.880;2022-10-26T00:58:11;98509.91;;;22.38;30.71
38880;BME280;25887;30.194;-97.880;2022-10-26T01:00:38;98509.41;;;22.30;31.12
38880;BME280;25887;30.194;-97.880;2022-10-26T01:03:07;98518.38;;;22.24;30.97
38880;BME280;25887;30.194;-97.880;2022-10-26T01:05:34;98523.06;;;22.18;31.16
38880;BME280;25887;30.194;-97.880;2022-10-26T01:08:01;98523.34;;;22.12;31.24
38880;BME280;25887;30.194;-97.880;2022-10-26T01:10:27;98530.50;;;22.07;31.25
38880;BME280;25887;30.194;-97.880;2022-10-26T01:12:53;98530.84;;;21.99;31.41
38880;BME280;25887;30.194;-97.880;2022-10-26T01:15:21;98534.72;;;21.90;31.24
38880;BME280;25887;30.194;-97.880;2022-10-26T01:17:55;98535.81;;;21.85;31.55
38880;BME280;25887;30.194;-97.880;2022-10-26T01:22:56;98539.09;;;21.69;31.64
38880;BME280;25887;30.194;-97.880;2022-10-26T01:28:19;98543.25;;;21.53;31.65
38880;BME280;25887;30.194;-97.880;2022-10-26T01:30:51;98539.25;;;21.45;31.63
38880;BME280;25887;30.194;-97.880;2022-10-26T01:38:30;98547.09;;;21.23;31.78
38880;BME280;25887;30.194;-97.880;2022-10-26T01:43:23;98544.38;;;21.04;31.90
38880;BME280;25887;30.194;-97.880;2022-10-26T01:45:50;98548.94;;;20.99;32.17
38880;BME280;25887;30.194;-97.880;2022-10-26T01:48:23;98550.91;;;20.94;32.00
38880;BME280;25887;30.194;-97.880;2022-10-26T01:50:51;98548.50;;;20.88;32.07
38880;BME280;25887;30.194;-97.880;2022-10-26T01:53:18;98554.88;;;20.80;32.26
38880;BME280;25887;30.194;-97.880;2022-10-26T01:58:35;98559.72;;;20.68;32.26
38880;BME280;25887;30.194;-97.880;2022-10-26T02:01:03;98560.91;;;20.59;32.34
38880;BME280;25887;30.194;-97.880;2022-10-26T02:03:33;98562.03;;;20.52;32.64
38880;BME280;25887;30.194;-97.880;2022-10-26T02:06:09;98564.84;;;20.47;32.63
38880;BME280;25887;30.194;-97.880;2022-10-26T02:11:45;98563.72;;;20.29;32.69
38880;BME280;25887;30.194;-97.880;2022-10-26T02:14:13;98565.75;;;20.21;32.90
38880;BME280;25887;30.194;-97.880;2022-10-26T02:16:52;98576.38;;;20.15;32.97
38880;BME280;25887;30.194;-97.880;2022-10-26T02:21:53;98566.56;;;19.98;33.07
38880;BME280;25887;30.194;-97.880;2022-10-26T02:24:22;98565.13;;;19.90;32.93
38880;BME280;25887;30.194;-97.880;2022-10-26T02:26:51;98570.66;;;19.81;32.99
38880;BME280;25887;30.194;-97.880;2022-10-26T02:29:18;98569.22;;;19.72;33.18
38880;BME280;25887;30.194;-97.880;2022-10-26T02:31:45;98572.09;;;19.64;33.12
38880;BME280;25887;30.194;-97.880;2022-10-26T02:34:13;98564.53;;;19.55;33.22
38880;BME280;25887;30.194;-97.880;2022-10-26T02:36:43;98576.88;;;19.50;33.37
38880;BME280;25887;30.194;-97.880;2022-10-26T02:39:10;98570.94;;;19.45;33.48
38880;BME280;25887;30.194;-97.880;2022-10-26T02:41:38;98572.91;;;19.38;33.46
38880;BME280;25887;30.194;-97.880;2022-10-26T02:44:07;98580.94;;;19.32;33.48
38880;BME280;25887;30.194;-97.880;2022-10-26T02:46:37;98582.03;;;19.25;33.35
38880;BME280;25887;30.194;-97.880;2022-10-26T02:49:06;98587.31;;;19.22;33.58
38880;BME280;25887;30.194;-97.880;2022-10-26T02:51:39;98582.31;;;19.16;33.66
38880;BME280;25887;30.194;-97.880;2022-10-26T02:59:45;98586.38;;;18.97;33.83
38880;BME280;25887;30.194;-97.880;2022-10-26T03:02:15;98592.72;;;18.88;34.01
38880;BME280;25887;30.194;-97.880;2022-10-26T03:04:42;98597.34;;;18.78;34.00
38880;BME280;25887;30.194;-97.880;2022-10-26T03:07:10;98591.53;;;18.70;34.14
38880;BME280;25887;30.194;-97.880;2022-10-26T03:09:36;98593.41;;;18.63;34.31
38880;BME280;25887;30.194;-97.880;2022-10-26T03:12:02;98593.69;;;18.54;34.31
38880;BME280;25887;30.194;-97.880;2022-10-26T03:14:28;98593.00;;;18.48;34.39
38880;BME280;25887;30.194;-97.880;2022-10-26T03:16:56;98600.06;;;18.43;34.38
38880;BME280;25887;30.194;-97.880;2022-10-26T03:19:21;98598.47;;;18.38;34.51
38880;BME280;25887;30.194;-97.880;2022-10-26T03:21:47;98605.50;;;18.35;34.49
38880;BME280;25887;30.194;-97.880;2022-10-26T03:24:13;98601.28;;;18.31;34.55
38880;BME280;25887;30.194;-97.880;2022-10-26T03:26:39;98610.00;;;18.28;34.60
38880;BME280;25887;30.194;-97.880;2022-10-26T03:29:07;98607.50;;;18.25;34.56
38880;BME280;25887;30.194;-97.880;2022-10-26T03:31:33;98611.09;;;18.21;34.70
38880;BME280;25887;30.194;-97.880;2022-10-26T03:33:59;98620.72;;;18.18;34.67
38880;BME280;25887;30.194;-97.880;2022-10-26T03:36:24;98619.13;;;18.12;34.75
38880;BME280;25887;30.194;-97.880;2022-10-26T03:38:53;98620.16;;;18.05;34.78
38880;BME280;25887;30.194;-97.880;2022-10-26T03:41:22;98616.84;;;18.00;34.87
38880;BME280;25887;30.194;-97.880;2022-10-26T03:43:48;98616.06;;;17.96;34.81
38880;BME280;25887;30.194;-97.880;2022-10-26T03:46:13;98620.50;;;17.93;34.85
38880;BME280;25887;30.194;-97.880;2022-10-26T03:48:39;98624.06;;;17.89;35.10
38880;BME280;25887;30.194;-97.880;2022-10-26T03:51:07;98634.56;;;17.86;34.94
38880;BME280;25887;30.194;-97.880;2022-10-26T03:53:33;98632.91;;;17.81;35.18
38880;BME280;25887;30.194;-97.880;2022-10-26T03:55:59;98630.44;;;17.77;35.26
38880;BME280;25887;30.194;-97.880;2022-10-26T03:58:25;98633.19;;;17.71;35.28
38880;BME280;25887;30.194;-97.880;2022-10-26T04:00:51;98636.75;;;17.65;35.32
38880;BME280;25887;30.194;-97.880;2022-10-26T04:03:17;98642.13;;;17.59;35.31
38880;BME280;25887;30.194;-97.880;2022-10-26T04:05:43;98640.50;;;17.53;35.41
38880;BME280;25887;30.194;-97.880;2022-10-26T04:08:08;98638.84;;;17.49;35.27
38880;BME280;25887;30.194;-97.880;2022-10-26T04:10:34;98635.50;;;17.46;35.45
38880;BME280;25887;30.194;-97.880;2022-10-26T04:13:00;98645.09;;;17.42;35.37
38880;BME280;25887;30.194;-97.880;2022-10-26T04:15:27;98654.69;;;17.39;35.54
38880;BME280;25887;30.194;-97.880;2022-10-26T04:17:56;98659.97;;;17.36;35.59
38880;BME280;25887;30.194;-97.880;2022-10-26T04:20:22;98665.31;;;17.30;35.71
38880;BME280;25887;30.194;-97.880;2022-10-26T04:22:55;98653.25;;;17.25;35.84
38880;BME280;25887;30.194;-97.880;2022-10-26T04:25:21;98655.13;;;17.19;35.78
38880;BME280;25887;30.194;-97.880;2022-10-26T04:27:47;98653.56;;;17.12;36.04
38880;BME280;25887;30.194;-97.880;2022-10-26T04:30:13;98648.50;;;17.07;36.10
38880;BME280;25887;30.194;-97.880;2022-10-26T04:32:39;98651.19;;;17.03;35.90
38880;BME280;25887;30.194;-97.880;2022-10-26T04:35:11;98648.69;;;16.98;35.93
38880;BME280;25887;30.194;-97.880;2022-10-26T04:37:43;98647.84;;;16.96;36.17
38880;BME280;25887;30.194;-97.880;2022-10-26T04:40:09;98656.56;;;16.93;36.16
38880;BME280;25887;30.194;-97.880;2022-10-26T04:42:42;98658.38;;;16.88;36.31
38880;BME280;25887;30.194;-97.880;2022-10-26T04:45:12;98661.09;;;16.84;36.22
38880;BME280;25887;30.194;-97.880;2022-10-26T04:47:38;98672.41;;;16.80;36.38
38880;BME280;25887;30.194;-97.880;2022-10-26T04:50:07;98663.00;;;16.76;36.47
38880;BME280;25887;30.194;-97.880;2022-10-26T04:52:33;98662.22;;;16.70;36.28
38880;BME280;25887;30.194;-97.880;2022-10-26T04:54:59;98670.94;;;16.65;36.57
38880;BME280;25887;30.194;-97.880;2022-10-26T04:57:25;98664.19;;;16.58;36.48
38880;BME280;25887;30.194;-97.880;2022-10-26T04:59:51;98666.03;;;16.53;36.48
38880;BME280;25887;30.194;-97.880;2022-10-26T05:02:17;98666.16;;;16.45;36.53
38880;BME280;25887;30.194;-97.880;2022-10-26T05:05:06;98667.16;;;16.38;36.61
38880;BME280;25887;30.194;-97.880;2022-10-26T05:07:34;98670.69;;;16.34;36.72
38880;BME280;25887;30.194;-97.880;2022-10-26T05:10:00;98663.00;;;16.29;36.58
38880;BME280;25887;30.194;-97.880;2022-10-26T05:12:26;98663.94;;;16.27;36.83
38880;BME280;25887;30.194;-97.880;2022-10-26T05:14:55;98664.81;;;16.24;36.73
38880;BME280;25887;30.194;-97.880;2022-10-26T05:17:26;98659.72;;;16.20;36.93
38880;BME280;25887;30.194;-97.880;2022-10-26T05:19:52;98658.03;;;16.17;37.10
38880;BME280;25887;30.194;-97.880;2022-10-26T05:22:25;98658.94;;;16.14;37.10
38880;BME280;25887;30.194;-97.880;2022-10-26T05:24:53;98665.06;;;16.12;36.92
38880;BME280;25887;30.194;-97.880;2022-10-26T05:27:19;98659.91;;;16.09;37.21
38880;BME280;25887;30.194;-97.880;2022-10-26T05:29:45;98651.34;;;16.05;37.16
38880;BME280;25887;30.194;-97.880;2022-10-26T05:32:14;98645.34;;;16.03;37.05
38880;BME280;25887;30.194;-97.880;2022-10-26T05:34:39;98648.84;;;15.99;37.31
38880;BME280;25887;30.194;-97.880;2022-10-26T05:37:05;98653.25;;;15.94;37.40
38880;BME280;25887;30.194;-97.880;2022-10-26T05:39:31;98650.75;;;15.90;37.26
38880;BME280;25887;30.194;-97.880;2022-10-26T05:41:57;98650.81;;;15.85;37.20
38880;BME280;25887;30.194;-97.880;2022-10-26T05:44:22;98640.56;;;15.80;37.45
38880;BME280;25887;30.194;-97.880;2022-10-26T05:46:48;98642.31;;;15.77;37.48
38880;BME280;25887;30.194;-97.880;2022-10-26T05:49:15;98640.66;;;15.74;37.40
38880;BME280;25887;30.194;-97.880;2022-10-26T05:51:43;98639.00;;;15.69;37.53
38880;BME280;25887;30.194;-97.880;2022-10-26T05:54:08;98635.63;;;15.65;37.60
38880;BME280;25887;30.194;-97.880;2022-10-26T05:56:37;98635.66;;;15.60;37.53
38880;BME280;25887;30.194;-97.880;2022-10-26T05:59:05;98639.19;;;15.56;37.57
38880;BME280;25887;30.194;-97.880;2022-10-26T06:01:42;98640.97;;;15.53;37.73
38880;BME280;25887;30.194;-97.880;2022-10-26T06:06:41;98650.53;;;15.46;37.73
38880;BME280;25887;30.194;-97.880;2022-10-26T06:09:10;98643.69;;;15.44;37.75
38880;BME280;25887;30.194;-97.880;2022-10-26T06:11:43;98641.09;;;15.44;37.78
38880;BME280;25887;30.194;-97.880;2022-10-26T06:14:09;98643.72;;;15.42;37.64
38880;BME280;25887;30.194;-97.880;2022-10-26T06:27:42;98640.41;;;15.34;38.22
38880;BME280;25887;30.194;-97.880;2022-10-26T06:30:14;98636.09;;;15.33;38.00
38880;BME280;25887;30.194;-97.880;2022-10-26T06:32:43;98641.28;;;15.31;38.13
38880;BME280;25887;30.194;-97.880;2022-10-26T06:35:18;98637.84;;;15.31;38.13
38880;BME280;25887;30.194;-97.880;2022-10-26T06:37:45;98643.00;;;15.31;38.29
38880;BME280;25887;30.194;-97.880;2022-10-26T06:40:12;98630.94;;;15.30;38.30
38880;BME280;25887;30.194;-97.880;2022-10-26T06:42:39;98644.78;;;15.29;38.04
38880;BME280;25887;30.194;-97.880;2022-10-26T06:45:05;98643.06;;;15.28;38.21
38880;BME280;25887;30.194;-97.880;2022-10-26T06:47:34;98651.72;;;15.27;38.17
38880;BME280;25887;30.194;-97.880;2022-10-26T06:50:23;98656.88;;;15.27;38.16
38880;BME280;25887;30.194;-97.880;2022-10-26T06:52:57;98654.28;;;15.28;38.25
38880;BME280;25887;30.194;-97.880;2022-10-26T06:55:28;98641.31;;;15.30;38.34
38880;BME280;25887;30.194;-97.880;2022-10-26T06:57:58;98644.72;;;15.32;38.26
38880;BME280;25887;30.194;-97.880;2022-10-26T07:00:24;98638.69;;;15.33;38.29
38880;BME280;25887;30.194;-97.880;2022-10-26T07:02:50;98645.50;;;15.37;38.28
38880;BME280;25887;30.194;-97.880;2022-10-26T07:05:19;98640.31;;;15.39;38.33
38880;BME280;25887;30.194;-97.880;2022-10-26T07:07:45;98643.72;;;15.42;38.63
38880;BME280;25887;30.194;-97.880;2022-10-26T07:10:12;98644.53;;;15.44;38.52
38880;BME280;25887;30.194;-97.880;2022-10-26T07:15:36;98639.38;;;15.44;38.38
38880;BME280;25887;30.194;-97.880;2022-10-26T07:18:02;98645.41;;;15.45;38.41
38880;BME280;25887;30.194;-97.880;2022-10-26T07:20:30;98648.88;;;15.44;38.51
38880;BME280;25887;30.194;-97.880;2022-10-26T07:22:59;98647.19;;;15.41;38.35
38880;BME280;25887;30.194;-97.880;2022-10-26T07:25:26;98651.50;;;15.39;38.28
38880;BME280;25887;30.194;-97.880;2022-10-26T07:27:59;98655.88;;;15.37;38.50
38880;BME280;25887;30.194;-97.880;2022-10-26T07:30:28;98653.34;;;15.34;38.47
38880;BME280;25887;30.194;-97.880;2022-10-26T07:32:58;98661.16;;;15.29;38.53
38880;BME280;25887;30.194;-97.880;2022-10-26T07:35:24;98658.63;;;15.25;38.62
38880;BME280;25887;30.194;-97.880;2022-10-26T07:37:50;98656.94;;;15.22;38.52
38880;BME280;25887;30.194;-97.880;2022-10-26T07:40:16;98652.69;;;15.20;38.42
38880;BME280;25887;30.194;-97.880;2022-10-26T07:42:42;98652.69;;;15.17;38.55
38880;BME280;25887;30.194;-97.880;2022-10-26T07:45:08;98654.47;;;15.15;38.40
38880;BME280;25887;30.194;-97.880;2022-10-26T07:47:34;98654.53;;;15.12;38.52
38880;BME280;25887;30.194;-97.880;2022-10-26T07:50:00;98656.28;;;15.08;38.66
38880;BME280;25887;30.194;-97.880;2022-10-26T07:52:25;98657.19;;;15.05;38.56
38880;BME280;25887;30.194;-97.880;2022-10-26T07:54:52;98654.66;;;15.02;38.66
38880;BME280;25887;30.194;-97.880;2022-10-26T07:57:18;98649.47;;;15.01;38.68
38880;BME280;25887;30.194;-97.880;2022-10-26T07:59:44;98650.38;;;14.98;38.58
38880;BME280;25887;30.194;-97.880;2022-10-26T08:02:09;98644.34;;;14.98;38.69
38880;BME280;25887;30.194;-97.880;2022-10-26T08:04:38;98648.69;;;14.96;38.91
38880;BME280;25887;30.194;-97.880;2022-10-26T08:07:18;98654.72;;;14.96;38.71
38880;BME280;25887;30.194;-97.880;2022-10-26T08:09:45;98652.16;;;14.95;38.75
38880;BME280;25887;30.194;-97.880;2022-10-26T08:12:11;98658.19;;;14.94;38.78
38880;BME280;25887;30.194;-97.880;2022-10-26T08:14:41;98649.59;;;14.92;38.81
38880;BME280;25887;30.194;-97.880;2022-10-26T08:17:10;98648.78;;;14.90;38.87
38880;BME280;25887;30.194;-97.880;2022-10-26T08:19:36;98643.63;;;14.88;38.60
38880;BME280;25887;30.194;-97.880;2022-10-26T08:22:02;98649.66;;;14.86;38.84
38880;BME280;25887;30.194;-97.880;2022-10-26T08:24:28;98648.88;;;14.82;38.92
38880;BME280;25887;30.194;-97.880;2022-10-26T08:27:03;98644.59;;;14.80;38.96
38880;BME280;25887;30.194;-97.880;2022-10-26T08:29:35;98643.75;;;14.77;38.86
38880;BME280;25887;30.194;-97.880;2022-10-26T08:32:05;98641.19;;;14.76;38.90
38880;BME280;25887;30.194;-97.880;2022-10-26T08:34:31;98642.91;;;14.75;39.03
38880;BME280;25887;30.194;-97.880;2022-10-26T08:36:56;98644.66;;;14.73;39.15
38880;BME280;25887;30.194;-97.880;2022-10-26T08:39:22;98639.53;;;14.72;38.93
38880;BME280;25887;30.194;-97.880;2022-10-26T08:42:15;98645.56;;;14.71;38.92
38880;BME280;25887;30.194;-97.880;2022-10-26T08:44:58;98648.19;;;14.68;39.20
38880;BME280;25887;30.194;-97.880;2022-10-26T08:47:29;98645.66;;;14.65;39.11
38880;BME280;25887;30.194;-97.880;2022-10-26T08:50:05;98644.81;;;14.61;39.08
38880;BME280;25887;30.194;-97.880;2022-10-26T08:52:36;98647.41;;;14.60;39.17
38880;BME280;25887;30.194;-97.880;2022-10-26T08:55:04;98641.44;;;14.56;39.09
38880;BME280;25887;30.194;-97.880;2022-10-26T08:57:37;98647.47;;;14.54;39.10
38880;BME280;25887;30.194;-97.880;2022-10-26T09:00:10;98649.25;;;14.52;39.29
38880;BME280;25887;30.194;-97.880;2022-10-26T09:02:38;98636.34;;;14.48;39.26
38880;BME280;25887;30.194;-97.880;2022-10-26T09:05:07;98636.38;;;14.45;39.23
38880;BME280;25887;30.194;-97.880;2022-10-26T09:07:41;98637.25;;;14.43;38.90
38880;BME280;25887;30.194;-97.880;2022-10-26T09:17:57;98637.41;;;14.28;39.31
38880;BME280;25887;30.194;-97.880;2022-10-26T09:20:43;98634.88;;;14.23;39.29
38880;BME280;25887;30.194;-97.880;2022-10-26T09:23:28;98627.19;;;14.17;39.29
38880;BME280;25887;30.194;-97.880;2022-10-26T09:26:00;98625.50;;;14.13;39.38
38880;BME280;25887;30.194;-97.880;2022-10-26T09:28:27;98630.69;;;14.11;39.55
38880;BME280;25887;30.194;-97.880;2022-10-26T09:30:56;98622.97;;;14.08;39.69
38880;BME280;25887;30.194;-97.880;2022-10-26T09:33:23;98620.41;;;14.07;39.37
38880;BME280;25887;30.194;-97.880;2022-10-26T09:36:03;98616.97;;;14.05;39.60
38880;BME280;25887;30.194;-97.880;2022-10-26T09:38:40;98618.72;;;14.03;39.50
38880;BME280;25887;30.194;-97.880;2022-10-26T09:43:55;98612.72;;;13.99;39.84
38880;BME280;25887;30.194;-97.880;2022-10-26T09:46:27;98616.19;;;13.98;39.86
38880;BME280;25887;30.194;-97.880;2022-10-26T09:48:58;98617.91;;;13.98;39.74
38880;BME280;25887;30.194;-97.880;2022-10-26T09:51:26;98615.34;;;13.96;39.82
38880;BME280;25887;30.194;-97.880;2022-10-26T09:53:52;98617.09;;;13.94;39.66
38880;BME280;25887;30.194;-97.880;2022-10-26T09:56:18;98617.09;;;13.92;39.60
38880;BME280;25887;30.194;-97.880;2022-10-26T09:59:03;98625.72;;;13.90;39.61
38880;BME280;25887;30.194;-97.880;2022-10-26T10:01:33;98622.34;;;13.86;39.69
38880;BME280;25887;30.194;-97.880;2022-10-26T10:06:34;98618.94;;;13.81;39.99
38880;BME280;25887;30.194;-97.880;2022-10-26T10:09:13;98616.38;;;13.80;39.85
38880;BME280;25887;30.194;-97.880;2022-10-26T10:14:53;98622.41;;;13.76;39.66
38880;BME280;25887;30.194;-97.880;2022-10-26T10:17:14;98626.72;;;13.75;39.68
38880;BME280;25887;30.194;-97.880;2022-10-26T10:19:46;98633.63;;;13.73;40.06
38880;BME280;25887;30.194;-97.880;2022-10-26T10:27:24;98643.13;;;13.71;40.01
38880;BME280;25887;30.194;-97.880;2022-10-26T10:29:54;98641.41;;;13.72;40.10
38880;BME280;25887;30.194;-97.880;2022-10-26T10:32:21;98647.44;;;13.71;40.10
38880;BME280;25887;30.194;-97.880;2022-10-26T10:34:50;98651.75;;;13.70;39.90
38880;BME280;25887;30.194;-97.880;2022-10-26T10:37:25;98654.31;;;13.70;39.82
38880;BME280;25887;30.194;-97.880;2022-10-26T10:39:55;98650.00;;;13.69;39.97
38880;BME280;25887;30.194;-97.880;2022-10-26T10:42:22;98656.91;;;13.70;40.31
38880;BME280;25887;30.194;-97.880;2022-10-26T10:45:00;98657.75;;;13.71;40.13
38880;BME280;25887;30.194;-97.880;2022-10-26T10:47:31;98655.19;;;13.71;40.21
38880;BME280;25887;30.194;-97.880;2022-10-26T10:52:27;98662.91;;;13.69;40.18
38880;BME280;25887;30.194;-97.880;2022-10-26T10:54:57;98671.53;;;13.68;40.35
38880;BME280;25887;30.194;-97.880;2022-10-26T10:57:35;98662.13;;;13.64;39.99
38880;BME280;25887;30.194;-97.880;2022-10-26T11:00:03;98667.28;;;13.64;40.01
38880;BME280;25887;30.194;-97.880;2022-10-26T11:13:37;98682.91;;;13.43;40.09
38880;BME280;25887;30.194;-97.880;2022-10-26T11:16:10;98688.97;;;13.40;40.48
38880;BME280;25887;30.194;-97.880;2022-10-26T11:18:47;98695.84;;;13.38;40.10
38880;BME280;25887;30.194;-97.880;2022-10-26T11:21:21;98696.72;;;13.35;40.15
38880;BME280;25887;30.194;-97.880;2022-10-26T11:23:49;98698.47;;;13.33;40.18
38880;BME280;25887;30.194;-97.880;2022-10-26T11:28:47;98705.34;;;13.31;40.25
38880;BME280;25887;30.194;-97.880;2022-10-26T11:36:36;98704.50;;;13.29;40.27
38880;BME280;25887;30.194;-97.880;2022-10-26T11:39:19;98708.81;;;13.27;40.41
38880;BME280;25887;30.194;-97.880;2022-10-26T11:42:47;98714.84;;;13.25;40.19
38880;BME280;25887;30.194;-97.880;2022-10-26T11:44:45;98710.53;;;13.22;40.73
38880;BME280;25887;30.194;-97.880;2022-10-26T11:47:17;98707.09;;;13.19;40.62
38880;BME280;25887;30.194;-97.880;2022-10-26T11:52:38;98714.88;;;13.13;40.52
38880;BME280;25887;30.194;-97.880;2022-10-26T11:55:09;98721.78;;;13.10;40.61
38880;BME280;25887;30.194;-97.880;2022-10-26T11:57:35;98722.66;;;13.08;40.36
38880;BME280;25887;30.194;-97.880;2022-10-26T12:02:30;98720.94;;;13.04;40.43
38880;BME280;25887;30.194;-97.880;2022-10-26T12:07:29;98728.69;;;12.98;40.85
38880;BME280;25887;30.194;-97.880;2022-10-26T12:09:55;98728.72;;;12.95;40.86
38880;BME280;25887;30.194;-97.880;2022-10-26T12:12:27;98739.91;;;12.94;40.81
38880;BME280;25887;30.194;-97.880;2022-10-26T12:19:59;98746.78;;;12.82;40.57
38880;BME280;25887;30.194;-97.880;2022-10-26T12:22:28;98746.81;;;12.79;40.84
38880;BME280;25887;30.194;-97.880;2022-10-26T12:37:53;98765.75;;;12.69;41.19
38880;BME280;25887;30.194;-97.880;2022-10-26T12:43:20;98763.16;;;12.66;41.22
38880;BME280;25887;30.194;-97.880;2022-10-26T12:45:43;98766.63;;;12.65;41.00
38880;BME280;25887;30.194;-97.880;2022-10-26T12:48:20;98765.75;;;12.66;40.98
38880;BME280;25887;30.194;-97.880;2022-10-26T12:50:50;98762.31;;;12.66;40.94
38880;BME280;25887;30.194;-97.880;2022-10-26T12:53:17;98770.06;;;12.64;40.86
38880;BME280;25887;30.194;-97.880;2022-10-26T13:08:16;98788.09;;;12.67;41.31
38880;BME280;25887;30.194;-97.880;2022-10-26T13:13:30;98796.69;;;12.72;41.23
38880;BME280;25887;30.194;-97.880;2022-10-26T13:15:58;98797.53;;;12.73;41.15
38880;BME280;25887;30.194;-97.880;2022-10-26T13:18:25;98791.50;;;12.75;41.50
38880;BME280;25887;30.194;-97.880;2022-10-26T13:23:24;98816.41;;;12.81;41.22
38880;BME280;25887;30.194;-97.880;2022-10-26T13:26:04;98802.66;;;12.83;41.47
38880;BME280;25887;30.194;-97.880;2022-10-26T13:33:58;98811.22;;;12.92;41.70
38880;BME280;25887;30.194;-97.880;2022-10-26T13:36:31;98828.44;;;12.96;41.77
38880;BME280;25887;30.194;-97.880;2022-10-26T13:38:58;98825.84;;;13.00;41.81
38880;BME280;25887;30.194;-97.880;2022-10-26T13:41:27;98830.09;;;13.06;41.36
38880;BME280;25887;30.194;-97.880;2022-10-26T13:43:55;98834.41;;;13.10;41.50
38880;BME280;25887;30.194;-97.880;2022-10-26T13:46:26;98837.84;;;13.17;41.53
38880;BME280;25887;30.194;-97.880;2022-10-26T13:48:57;98839.53;;;13.22;41.74
38880;BME280;25887;30.194;-97.880;2022-10-26T13:51:24;98848.13;;;13.30;41.46
38880;BME280;25887;30.194;-97.880;2022-10-26T13:56:33;98850.59;;;13.64;41.92
38880;BME280;25887;30.194;-97.880;2022-10-26T14:01:33;98857.03;;;14.35;41.11
38880;BME280;25887;30.194;-97.880;2022-10-26T14:04:25;98862.16;;;14.41;41.54
38880;BME280;25887;30.194;-97.880;2022-10-26T14:06:51;98867.31;;;14.46;41.62
38880;BME280;25887;30.194;-97.880;2022-10-26T14:09:19;98870.75;;;14.49;41.92
38880;BME280;25887;30.194;-97.880;2022-10-26T14:11:55;98880.16;;;14.55;41.98
38880;BME280;25887;30.194;-97.880;2022-10-26T14:14:27;98876.66;;;14.64;41.79
38880;BME280;25887;30.194;-97.880;2022-10-26T14:16:59;98878.19;;;14.88;41.81
38880;BME280;25887;30.194;-97.880;2022-10-26T14:19:30;98889.91;;;15.22;41.61
38880;BME280;25887;30.194;-97.880;2022-10-26T14:21:56;98895.63;;;15.52;41.50
38880;BME280;25887;30.194;-97.880;2022-10-26T14:24:35;98897.13;;;15.73;41.46
38880;BME280;25887;30.194;-97.880;2022-10-26T14:27:24;98905.69;;;15.78;41.51
38880;BME280;25887;30.194;-97.880;2022-10-26T14:29:54;98906.44;;;15.86;41.52
38880;BME280;25887;30.194;-97.880;2022-10-26T14:34:45;98918.41;;;15.96;41.60
38880;BME280;25887;30.194;-97.880;2022-10-26T14:37:11;98924.34;;;16.04;41.80
38880;BME280;25887;30.194;-97.880;2022-10-26T14:39:45;98919.03;;;16.13;41.76
38880;BME280;25887;30.194;-97.880;2022-10-26T14:42:19;98927.50;;;16.25;41.86
38880;BME280;25887;30.194;-97.880;2022-10-26T14:44:48;98927.38;;;16.35;41.65
38880;BME280;25887;30.194;-97.880;2022-10-26T14:47:24;98923.78;;;16.46;41.80
38880;BME280;25887;30.194;-97.880;2022-10-26T14:49:51;98924.44;;;16.58;41.64
38880;BME280;25887;30.194;-97.880;2022-10-26T14:52:33;98932.09;;;16.67;41.33
38880;BME280;25887;30.194;-97.880;2022-10-26T14:55:09;98941.28;;;16.88;41.32
38880;BME280;25887;30.194;-97.880;2022-10-26T14:57:38;98935.69;;;17.11;41.22
38880;BME280;25887;30.194;-97.880;2022-10-26T15:00:12;98942.34;;;17.27;41.12
38880;BME280;25887;30.194;-97.880;2022-10-26T15:02:39;98942.81;;;17.48;41.12
38880;BME280;25887;30.194;-97.880;2022-10-26T15:07:43;98949.13;;;17.81;40.48
38880;BME280;25887;30.194;-97.880;2022-10-26T15:12:54;98952.75;;;18.16;40.53
38880;BME280;25887;30.194;-97.880;2022-10-26T15:15:20;98950.69;;;18.31;40.43
38880;BME280;25887;30.194;-97.880;2022-10-26T15:17:53;98951.31;;;18.41;40.22
38880;BME280;25887;30.194;-97.880;2022-10-26T15:20:20;98943.25;;;18.52;40.31
38880;BME280;25887;30.194;-97.880;2022-10-26T15:22:53;98948.28;;;18.61;40.05